Time;durP1;ratioP1;P1;durP2;ratioP2;P2;SDS_P1;SDS_P2;PMS_P1;PMS_P2;Temp;Humidity;BMP_temperature;BMP_pressure;BME280_temperature;BME280_humidity;BME280_pressure;Samples;Min_cycle;Max_cycle;Signal;HPM_P1;HPM_P2
2022/01/06 00:00:23;;;;;;;6.38;3.58;;;5.60;99.90;;;;;;4934589;29;20201;-73
2022/01/06 00:03:09;;;;;;;9.75;4.57;;;5.50;99.90;;;;;;4934638;29;20217;-73
2022/01/06 00:05:56;;;;;;;17.08;4.05;;;5.50;99.90;;;;;;4931825;29;20312;-73
2022/01/06 00:08:43;;;;;;;14.25;5.65;;;5.40;99.90;;;;;;4928557;29;20205;-74
2022/01/06 00:11:29;;;;;;;8.90;4.13;;;5.40;99.90;;;;;;4920464;29;20297;-73
2022/01/06 00:14:20;;;;;;;14.05;5.25;;;5.20;99.90;;;;;;4920057;29;20650;-73
2022/01/06 00:17:21;;;;;;;14.32;5.07;;;5.20;99.90;;;;;;4927521;29;20279;-73
2022/01/06 00:23:29;;;;;;;13.05;4.65;;;5.10;99.90;;;;;;4927153;29;21703;-73
2022/01/06 00:26:16;;;;;;;11.48;3.85;;;5.10;99.90;;;;;;4918159;29;20217;-73
2022/01/06 00:29:02;;;;;;;8.88;4.15;;;5.20;99.90;;;;;;4920921;29;20583;-73
2022/01/06 00:31:48;;;;;;;13.80;4.22;;;5.20;99.90;;;;;;4932640;29;20609;-73
2022/01/06 00:34:34;;;;;;;14.27;4.15;;;5.20;99.90;;;;;;4919731;29;20228;-74
2022/01/06 00:37:20;;;;;;;12.32;5.28;;;5.00;99.90;;;;;;4930544;29;20208;-73
2022/01/06 00:40:07;;;;;;;6.38;3.92;;;5.10;99.90;;;;;;4930531;29;20698;-73
2022/01/06 00:42:55;;;;;;;10.88;4.05;;;5.20;99.90;;;;;;4933343;29;20690;-73
2022/01/06 00:45:41;;;;;;;9.25;3.95;;;5.20;99.90;;;;;;4929114;29;20316;-73
2022/01/06 00:48:27;;;;;;;6.00;4.20;;;5.30;99.90;;;;;;4915025;29;20217;-73
2022/01/06 00:51:13;;;;;;;6.15;3.47;;;5.30;99.90;;;;;;4919407;29;20214;-73
2022/01/06 00:53:58;;;;;;;12.60;4.60;;;5.20;99.90;;;;;;4923702;29;20273;-73
2022/01/06 00:56:44;;;;;;;9.60;4.45;;;5.00;99.90;;;;;;4932182;29;20286;-73
2022/01/06 00:59:31;;;;;;;13.30;5.40;;;5.10;99.90;;;;;;4932452;29;20267;-73
2022/01/06 01:02:16;;;;;;;15.30;4.68;;;5.10;99.90;;;;;;4929554;29;20281;-73
2022/01/06 01:05:03;;;;;;;12.95;4.25;;;5.00;99.90;;;;;;4927225;29;20228;-73
2022/01/06 01:07:48;;;;;;;15.38;4.70;;;5.00;99.90;;;;;;4933263;29;20196;-73
2022/01/06 01:10:34;;;;;;;7.90;4.22;;;5.00;99.90;;;;;;4926834;29;20209;-73
2022/01/06 01:13:27;;;;;;;10.93;4.45;;;5.00;99.90;;;;;;4918379;29;20265;-73
2022/01/06 01:16:23;;;;;;;15.95;4.78;;;5.10;99.90;;;;;;4927582;29;20325;-73
2022/01/06 01:19:10;;;;;;;11.85;5.07;;;5.10;99.90;;;;;;4937238;29;20671;-73
2022/01/06 01:21:58;;;;;;;11.77;4.10;;;5.10;99.90;;;;;;4926100;29;20304;-73
2022/01/06 01:24:43;;;;;;;9.13;5.03;;;5.10;99.90;;;;;;4924016;29;20222;-73
2022/01/06 01:27:34;;;;;;;6.10;3.75;;;5.20;99.90;;;;;;4935248;29;20817;-73
2022/01/06 01:30:22;;;;;;;14.93;4.85;;;5.30;99.90;;;;;;4934862;29;20230;-73
2022/01/06 01:33:15;;;;;;;15.90;4.78;;;5.20;99.90;;;;;;4927389;29;20249;-73
2022/01/06 01:36:01;;;;;;;12.60;5.32;;;5.10;99.90;;;;;;4936897;29;20209;-73
2022/01/06 01:38:47;;;;;;;12.57;4.20;;;5.10;99.90;;;;;;4933151;29;20213;-73
2022/01/06 01:41:33;;;;;;;6.72;4.18;;;5.10;99.90;;;;;;4934157;29;20213;-73
2022/01/06 01:44:20;;;;;;;11.23;4.32;;;5.10;99.90;;;;;;4927206;29;20259;-73
2022/01/06 01:47:13;;;;;;;9.88;4.75;;;5.20;99.90;;;;;;4934834;29;20272;-73
2022/01/06 01:50:11;;;;;;;10.18;4.75;;;5.30;99.90;;;;;;4936369;29;20205;-73
2022/01/06 01:52:57;;;;;;;12.38;4.55;;;5.20;99.90;;;;;;4927940;29;20781;-73
2022/01/06 01:55:43;;;;;;;10.88;4.50;;;5.20;99.90;;;;;;4929679;29;20221;-73
2022/01/06 01:58:29;;;;;;;20.50;5.05;;;5.20;99.90;;;;;;4929378;29;20200;-73
2022/01/06 02:01:14;;;;;;;7.07;3.97;;;5.10;99.90;;;;;;4925084;29;20213;-73
2022/01/06 02:04:00;;;;;;;4.35;3.85;;;5.00;99.90;;;;;;4927780;29;20718;-73
2022/01/06 02:06:47;;;;;;;11.68;4.20;;;5.00;99.90;;;;;;4927541;29;20687;-73
2022/01/06 02:09:33;;;;;;;16.75;4.45;;;4.90;99.90;;;;;;4926456;29;20234;-73
2022/01/06 02:12:26;;;;;;;9.75;4.88;;;4.90;99.90;;;;;;4930727;29;20222;-73
2022/01/06 02:15:12;;;;;;;15.13;4.50;;;4.80;99.90;;;;;;4933160;29;20240;-73
2022/01/06 02:17:58;;;;;;;11.93;5.30;;;4.80;99.90;;;;;;4936129;29;20667;-73
2022/01/06 02:20:45;;;;;;;8.38;4.40;;;4.90;99.90;;;;;;4931312;29;20282;-73
2022/01/06 02:23:31;;;;;;;12.40;4.28;;;4.90;99.90;;;;;;4922083;29;20734;-73
2022/01/06 02:26:17;;;;;;;6.15;3.50;;;4.90;99.90;;;;;;4932141;29;20225;-73
2022/01/06 02:29:03;;;;;;;8.43;4.10;;;4.90;99.90;;;;;;4934083;29;20249;-73
2022/01/06 02:31:49;;;;;;;14.70;4.43;;;5.00;99.90;;;;;;4923600;29;20205;-73
2022/01/06 02:34:34;;;;;;;17.33;5.55;;;5.00;99.90;;;;;;4923115;29;20290;-73
2022/01/06 02:37:21;;;;;;;11.80;4.18;;;5.10;99.90;;;;;;4924148;29;20673;-73
2022/01/06 02:40:10;;;;;;;13.75;4.65;;;5.10;99.90;;;;;;4921681;29;20205;-73
2022/01/06 02:42:57;;;;;;;8.80;4.43;;;5.10;99.90;;;;;;4930387;29;20205;-73
2022/01/06 02:45:44;;;;;;;7.15;4.43;;;4.90;99.90;;;;;;4927010;29;20214;-73
2022/01/06 02:48:30;;;;;;;10.45;4.13;;;4.80;99.90;;;;;;4931441;29;20616;-73
2022/01/06 02:51:16;;;;;;;21.08;4.68;;;4.80;99.90;;;;;;4929160;29;20344;-73
2022/01/06 02:54:03;;;;;;;16.20;4.00;;;4.80;99.90;;;;;;4927528;29;20236;-73
2022/01/06 02:56:49;;;;;;;9.38;4.47;;;4.70;99.90;;;;;;4925496;29;20205;-73
2022/01/06 02:59:35;;;;;;;17.45;4.75;;;4.70;99.90;;;;;;4931405;29;20236;-73
2022/01/06 03:02:21;;;;;;;15.00;4.95;;;4.70;99.90;;;;;;4928818;29;20213;-73
2022/01/06 03:05:06;;;;;;;12.70;4.30;;;4.80;99.90;;;;;;4929628;29;20317;-73
2022/01/06 03:07:52;;;;;;;15.63;4.03;;;4.80;99.90;;;;;;4927958;29;20213;-73
2022/01/06 03:10:43;;;;;;;16.27;4.75;;;4.60;99.90;;;;;;4926284;29;20213;-73
2022/01/06 03:13:28;;;;;;;9.10;4.45;;;4.70;99.90;;;;;;4921100;29;20799;-73
2022/01/06 03:16:14;;;;;;;10.45;3.88;;;4.60;99.90;;;;;;4929712;29;20201;-73
2022/01/06 03:19:00;;;;;;;8.80;4.50;;;4.60;99.90;;;;;;4929585;29;20213;-73
2022/01/06 03:21:45;;;;;;;10.98;4.20;;;4.60;99.90;;;;;;4925450;29;20280;-73
2022/01/06 03:24:31;;;;;;;14.65;4.20;;;4.60;99.90;;;;;;4929150;29;20712;-74
2022/01/06 03:27:18;;;;;;;12.43;4.00;;;4.70;99.90;;;;;;4935381;29;20205;-73
2022/01/06 03:30:05;;;;;;;17.67;3.72;;;4.60;99.90;;;;;;4932951;29;20638;-73
2022/01/06 03:32:52;;;;;;;8.27;3.80;;;4.70;99.90;;;;;;4927813;29;20216;-73
2022/01/06 03:35:37;;;;;;;13.80;4.25;;;4.70;99.90;;;;;;4924433;29;20722;-73
2022/01/06 03:38:23;;;;;;;8.98;4.10;;;4.70;99.90;;;;;;4934878;29;20200;-73
2022/01/06 03:41:08;;;;;;;5.18;3.88;;;4.50;99.90;;;;;;4931114;29;20205;-73
2022/01/06 03:43:55;;;;;;;10.70;3.65;;;4.60;99.90;;;;;;4930950;29;20241;-73
2022/01/06 03:46:41;;;;;;;6.03;3.90;;;4.70;99.90;;;;;;4925695;29;20217;-73
2022/01/06 03:49:27;;;;;;;12.80;4.15;;;4.70;99.90;;;;;;4929349;29;20210;-73
2022/01/06 03:52:12;;;;;;;8.70;4.30;;;4.80;99.90;;;;;;4929241;29;20770;-73
2022/01/06 03:54:58;;;;;;;12.27;4.78;;;4.90;99.90;;;;;;4932758;29;20599;-73
2022/01/06 03:57:44;;;;;;;9.18;3.88;;;4.80;99.90;;;;;;4927689;29;20221;-73
2022/01/06 04:00:31;;;;;;;9.55;4.10;;;4.90;99.90;;;;;;4928579;29;20215;-73
2022/01/06 04:03:17;;;;;;;10.68;3.90;;;5.00;99.90;;;;;;4926240;29;20229;-73
2022/01/06 04:06:04;;;;;;;12.02;4.30;;;4.90;99.90;;;;;;4944682;29;20219;-74
2022/01/06 04:08:50;;;;;;;8.40;4.18;;;4.90;99.90;;;;;;4928960;29;20686;-74
2022/01/06 04:11:36;;;;;;;6.60;3.28;;;4.90;99.90;;;;;;4927252;29;20221;-73
2022/01/06 04:14:21;;;;;;;7.10;3.67;;;4.80;99.90;;;;;;4931518;29;20306;-73
2022/01/06 04:17:09;;;;;;;7.60;3.83;;;4.80;99.90;;;;;;4934136;29;20325;-73
2022/01/06 04:19:54;;;;;;;9.50;4.10;;;4.80;99.90;;;;;;4929747;29;20306;-73
2022/01/06 04:22:43;;;;;;;15.38;3.92;;;4.80;99.90;;;;;;4925811;29;20324;-73
2022/01/06 04:25:28;;;;;;;13.02;3.55;;;4.70;99.90;;;;;;4924937;29;20217;-73
2022/01/06 04:28:14;;;;;;;6.68;2.90;;;4.50;99.90;;;;;;4938369;29;20229;-73
2022/01/06 04:30:59;;;;;;;6.85;3.42;;;4.50;99.90;;;;;;4929267;29;20206;-73
2022/01/06 04:33:47;;;;;;;5.82;2.78;;;4.50;99.90;;;;;;4927240;29;20300;-73
2022/01/06 04:36:32;;;;;;;8.88;3.60;;;4.60;99.90;;;;;;4928348;29;20201;-73
2022/01/06 04:39:18;;;;;;;7.00;3.42;;;4.40;99.90;;;;;;4927513;29;20268;-73
2022/01/06 04:42:04;;;;;;;7.80;3.63;;;4.40;99.90;;;;;;4923314;29;20381;-73
2022/01/06 04:44:50;;;;;;;7.22;3.17;;;4.30;99.90;;;;;;4932029;29;20232;-73
2022/01/06 04:47:36;;;;;;;7.43;2.75;;;4.20;99.90;;;;;;4922519;29;20225;-73
2022/01/06 04:50:23;;;;;;;5.68;3.00;;;4.20;99.90;;;;;;4928157;29;20759;-73
2022/01/06 04:53:09;;;;;;;3.13;2.60;;;4.10;99.90;;;;;;4928047;29;20345;-73
2022/01/06 04:55:57;;;;;;;6.68;3.20;;;4.10;99.90;;;;;;4932593;29;20213;-73
2022/01/06 04:58:43;;;;;;;4.55;2.90;;;4.10;99.90;;;;;;4927556;29;20208;-73
2022/01/06 05:01:28;;;;;;;7.93;3.25;;;3.90;99.90;;;;;;4928159;29;20208;-73
2022/01/06 05:04:14;;;;;;;7.65;3.60;;;3.90;99.90;;;;;;4928762;29;20719;-73
2022/01/06 05:07:01;;;;;;;6.55;3.58;;;3.90;99.90;;;;;;4929219;29;21182;-73
2022/01/06 05:09:47;;;;;;;8.65;3.42;;;3.90;99.90;;;;;;4932727;29;20221;-73
2022/01/06 05:12:33;;;;;;;7.60;4.13;;;3.80;99.90;;;;;;4919807;29;20279;-73
2022/01/06 05:15:19;;;;;;;7.15;3.40;;;3.70;99.90;;;;;;4927355;29;20208;-73
2022/01/06 05:18:05;;;;;;;5.90;3.40;;;3.70;99.90;;;;;;4927804;29;20318;-73
2022/01/06 05:20:50;;;;;;;15.95;3.47;;;3.80;99.90;;;;;;4921737;29;20201;-73
2022/01/06 05:23:38;;;;;;;6.85;3.35;;;3.80;99.90;;;;;;4923167;29;20262;-73
2022/01/06 05:26:24;;;;;;;7.82;3.08;;;3.80;99.90;;;;;;4920713;29;20296;-73
2022/01/06 05:29:11;;;;;;;9.77;4.25;;;3.80;99.90;;;;;;4929463;29;20210;-73
2022/01/06 05:31:57;;;;;;;7.32;3.72;;;3.70;99.90;;;;;;4917195;29;20310;-74
2022/01/06 05:34:43;;;;;;;12.00;4.20;;;3.80;99.90;;;;;;4932885;29;20312;-73
2022/01/06 05:37:28;;;;;;;12.50;4.40;;;3.90;99.90;;;;;;4925720;29;20197;-73
2022/01/06 05:40:16;;;;;;;7.60;4.05;;;3.90;99.90;;;;;;4918238;29;20228;-73
2022/01/06 05:43:01;;;;;;;9.10;4.20;;;4.00;99.90;;;;;;4933960;29;20334;-73
2022/01/06 05:45:47;;;;;;;18.88;3.70;;;4.00;99.90;;;;;;4964716;23;20287;-73
2022/01/06 05:48:33;;;;;;;6.93;3.00;;;4.00;99.90;;;;;;4953151;29;20636;-73
2022/01/06 05:51:19;;;;;;;10.82;3.08;;;4.00;99.90;;;;;;4952087;29;20345;-73
2022/01/06 05:54:05;;;;;;;8.43;3.50;;;4.00;99.90;;;;;;4950271;29;20279;-73
2022/01/06 05:56:52;;;;;;;9.57;3.20;;;4.00;99.90;;;;;;4945547;29;20212;-72
2022/01/06 05:59:38;;;;;;;6.05;3.25;;;3.90;99.90;;;;;;4940472;29;20602;-73
2022/01/06 06:02:23;;;;;;;7.82;3.35;;;3.90;99.90;;;;;;4934280;29;20205;-73
2022/01/06 06:05:09;;;;;;;10.77;3.40;;;4.00;99.90;;;;;;4929069;29;20228;-73
2022/01/06 06:07:55;;;;;;;9.00;3.83;;;4.00;99.90;;;;;;4933937;29;20333;-73
2022/01/06 06:10:41;;;;;;;7.50;3.30;;;4.00;99.90;;;;;;4937308;29;20217;-73
2022/01/06 06:13:28;;;;;;;7.18;3.40;;;4.00;99.90;;;;;;4931853;29;20225;-73
2022/01/06 06:16:13;;;;;;;5.53;2.78;;;3.90;99.90;;;;;;4935764;29;20271;-73
2022/01/06 06:18:59;;;;;;;7.57;2.95;;;3.90;99.90;;;;;;4936280;29;20200;-73
2022/01/06 06:21:45;;;;;;;7.22;2.47;;;3.90;99.90;;;;;;4944652;29;20263;-73
2022/01/06 06:24:30;;;;;;;6.07;2.65;;;3.90;99.90;;;;;;4940240;29;20634;-73
2022/01/06 06:27:16;;;;;;;5.95;2.83;;;3.80;99.90;;;;;;4929224;29;20705;-74
2022/01/06 06:30:05;;;;;;;7.60;3.15;;;3.80;99.90;;;;;;4933808;29;20217;-73
2022/01/06 06:32:50;;;;;;;9.10;3.55;;;3.70;99.90;;;;;;4932848;29;20297;-73
2022/01/06 06:35:36;;;;;;;8.38;3.25;;;3.70;99.90;;;;;;4934918;29;20228;-73
2022/01/06 06:38:21;;;;;;;11.15;3.00;;;3.60;99.90;;;;;;4938167;29;20318;-73
2022/01/06 06:41:07;;;;;;;6.97;2.83;;;3.50;99.90;;;;;;4933931;29;20205;-73
2022/01/06 06:43:53;;;;;;;9.77;2.97;;;3.50;99.90;;;;;;4933966;29;20397;-74
2022/01/06 06:46:39;;;;;;;5.78;2.47;;;3.60;99.90;;;;;;4936209;29;20300;-73
2022/01/06 06:49:25;;;;;;;6.85;2.67;;;3.60;99.90;;;;;;4937504;29;20208;-73
2022/01/06 06:52:11;;;;;;;11.60;3.53;;;3.50;99.90;;;;;;4938558;29;20676;-73
2022/01/06 06:54:56;;;;;;;6.18;2.75;;;3.50;99.90;;;;;;4941669;29;20240;-73
2022/01/06 06:57:42;;;;;;;8.13;2.90;;;3.50;99.90;;;;;;4944542;29;20255;-73
2022/01/06 07:00:28;;;;;;;14.45;5.13;;;3.50;99.90;;;;;;4928840;29;20208;-73
2022/01/06 07:03:15;;;;;;;16.20;3.70;;;3.50;99.90;;;;;;4937862;29;20601;-72
2022/01/06 07:06:00;;;;;;;7.90;2.97;;;3.60;99.90;;;;;;4934928;29;20589;-73
2022/01/06 07:08:46;;;;;;;12.43;2.90;;;3.50;99.90;;;;;;4937919;29;20212;-72
2022/01/06 07:11:33;;;;;;;12.35;3.65;;;3.50;99.90;;;;;;4932935;29;20248;-73
2022/01/06 07:14:18;;;;;;;7.85;3.05;;;3.50;99.90;;;;;;4941334;29;20348;-73
2022/01/06 07:17:04;;;;;;;10.48;3.47;;;3.60;99.90;;;;;;4939290;29;20204;-73
2022/01/06 07:19:51;;;;;;;8.63;3.38;;;3.60;99.90;;;;;;4934505;29;20682;-72
2022/01/06 07:22:37;;;;;;;9.35;2.83;;;3.60;99.90;;;;;;4934189;29;20209;-73
2022/01/06 07:25:23;;;;;;;10.55;3.08;;;3.60;99.90;;;;;;4937388;29;20228;-73
2022/01/06 07:28:08;;;;;;;9.15;2.78;;;3.50;99.90;;;;;;4936376;29;20575;-72
2022/01/06 07:30:54;;;;;;;5.35;2.10;;;3.50;99.90;;;;;;4933426;29;20257;-73
2022/01/06 07:33:39;;;;;;;7.68;3.30;;;3.40;99.90;;;;;;4935408;29;20209;-73
2022/01/06 07:36:26;;;;;;;7.88;3.10;;;3.30;99.90;;;;;;4939833;29;20696;-73
2022/01/06 07:39:12;;;;;;;7.90;2.85;;;3.30;99.90;;;;;;4924658;29;20286;-72
2022/01/06 07:41:57;;;;;;;7.40;3.38;;;3.20;99.90;;;;;;4934333;29;20201;-72
2022/01/06 07:44:46;;;;;;;9.90;3.85;;;3.30;99.90;;;;;;4930946;29;20232;-72
2022/01/06 07:47:34;;;;;;;7.60;2.58;;;3.20;99.90;;;;;;4933085;29;20232;-72
2022/01/06 07:50:19;;;;;;;17.17;6.63;;;3.10;99.90;;;;;;4931609;29;20204;-72
2022/01/06 07:53:06;;;;;;;13.27;3.90;;;3.10;99.90;;;;;;4935052;29;20193;-72
2022/01/06 07:55:52;;;;;;;6.28;3.10;;;3.20;99.90;;;;;;4934130;29;20317;-72
2022/01/06 07:58:37;;;;;;;10.13;4.50;;;3.20;99.90;;;;;;4934643;29;20544;-73
2022/01/06 08:01:23;;;;;;;26.60;9.45;;;3.40;99.90;;;;;;4932693;29;20220;-73
2022/01/06 08:04:09;;;;;;;40.78;17.30;;;3.30;99.90;;;;;;4926235;29;20281;-73
2022/01/06 08:06:55;;;;;;;30.08;8.95;;;3.30;99.90;;;;;;4935507;29;20287;-73
2022/01/06 08:09:45;;;;;;;13.73;6.45;;;3.40;99.90;;;;;;4931409;29;20209;-72
2022/01/06 08:12:31;;;;;;;9.55;4.35;;;3.50;99.90;;;;;;4929049;29;20205;-72
2022/01/06 08:15:16;;;;;;;25.83;10.30;;;3.60;99.90;;;;;;4934718;29;20228;-73
2022/01/06 08:18:02;;;;;;;20.80;6.68;;;3.80;99.90;;;;;;4931834;29;20221;-72
2022/01/06 08:20:48;;;;;;;20.33;7.90;;;4.00;99.90;;;;;;4931500;29;20212;-73
2022/01/06 08:23:33;;;;;;;9.95;5.35;;;4.00;99.90;;;;;;4934318;29;20257;-73
2022/01/06 08:26:21;;;;;;;15.45;3.58;;;4.10;99.90;;;;;;4934658;29;20305;-73
2022/01/06 08:29:06;;;;;;;10.10;3.40;;;4.00;99.90;;;;;;4931202;29;20205;-73
2022/01/06 08:31:52;;;;;;;27.48;11.50;;;4.10;99.90;;;;;;4934636;29;20205;-73
2022/01/06 08:34:38;;;;;;;20.80;9.93;;;4.10;99.90;;;;;;4933042;29;20325;-73
2022/01/06 08:37:23;;;;;;;23.65;11.00;;;4.20;99.90;;;;;;4932985;29;20681;-72
2022/01/06 08:40:10;;;;;;;14.10;6.63;;;4.10;99.90;;;;;;4936041;29;20196;-73
2022/01/06 08:42:57;;;;;;;33.67;12.00;;;4.20;99.90;;;;;;4933788;29;20788;-73
2022/01/06 08:45:43;;;;;;;42.85;17.67;;;4.20;99.90;;;;;;4934075;29;20252;-73
2022/01/06 08:48:31;;;;;;;71.32;25.83;;;4.40;99.90;;;;;;4931351;29;20558;-73
2022/01/06 08:51:17;;;;;;;39.15;18.02;;;4.30;99.90;;;;;;4936669;29;20197;-73
2022/01/06 08:54:02;;;;;;;28.83;13.50;;;4.40;99.90;;;;;;4936844;29;20221;-72
2022/01/06 08:56:48;;;;;;;23.65;8.05;;;4.50;99.90;;;;;;4935672;29;20209;-73
2022/01/06 08:59:35;;;;;;;18.63;8.40;;;4.40;99.90;;;;;;4933083;29;20618;-73
2022/01/06 09:02:21;;;;;;;20.95;7.25;;;4.50;99.90;;;;;;4936227;29;20287;-73
2022/01/06 09:05:08;;;;;;;13.88;6.47;;;4.50;99.90;;;;;;4934345;29;20228;-73
2022/01/06 09:07:53;;;;;;;14.52;8.30;;;4.50;99.90;;;;;;4935878;29;20240;-73
2022/01/06 09:10:39;;;;;;;7.15;4.30;;;4.40;99.90;;;;;;4933514;29;20212;-73
2022/01/06 09:13:25;;;;;;;15.30;4.45;;;4.40;99.90;;;;;;4915552;29;20202;-73
2022/01/06 09:16:13;;;;;;;11.05;3.80;;;4.40;99.90;;;;;;4934520;29;20220;-73
2022/01/06 09:18:58;;;;;;;14.98;4.10;;;4.60;99.90;;;;;;4937765;29;20192;-73
2022/01/06 09:21:44;;;;;;;14.63;4.47;;;4.60;99.90;;;;;;4937846;29;20321;-73
2022/01/06 09:24:30;;;;;;;12.05;4.35;;;4.70;99.90;;;;;;4938783;29;20224;-73
2022/01/06 09:27:15;;;;;;;11.40;6.13;;;4.80;99.90;;;;;;4934530;29;20217;-72
2022/01/06 09:30:01;;;;;;;13.23;5.85;;;4.90;99.90;;;;;;4936661;29;20689;-72
2022/01/06 09:32:48;;;;;;;19.60;4.80;;;5.00;99.90;;;;;;4937764;29;20236;-73
2022/01/06 09:35:34;;;;;;;15.23;6.23;;;5.10;99.90;;;;;;4938300;29;20224;-73
2022/01/06 09:38:20;;;;;;;9.10;4.15;;;5.10;99.90;;;;;;4928857;29;20480;-72
2022/01/06 09:41:06;;;;;;;23.63;4.30;;;5.20;99.90;;;;;;4936121;29;20213;-73
2022/01/06 09:43:53;;;;;;;7.40;3.05;;;5.20;99.90;;;;;;4936717;29;20285;-72
2022/01/06 09:46:39;;;;;;;13.13;3.10;;;5.00;99.90;;;;;;4939234;29;20685;-73
2022/01/06 09:49:26;;;;;;;15.15;3.20;;;5.10;99.90;;;;;;4944345;29;20216;-73
2022/01/06 09:52:13;;;;;;;14.52;4.32;;;5.20;99.90;;;;;;4941869;29;20204;-72
2022/01/06 09:54:59;;;;;;;9.25;2.80;;;5.20;99.90;;;;;;4937500;29;20268;-73
2022/01/06 09:57:56;;;;;;;13.93;3.58;;;5.30;99.90;;;;;;4932819;29;20856;-73
2022/01/06 10:00:41;;;;;;;12.82;3.58;;;5.10;99.90;;;;;;4936606;29;20289;-73
2022/01/06 10:03:35;;;;;;;8.02;2.95;;;5.20;99.90;;;;;;4938134;29;22298;-74
2022/01/06 10:06:24;;;;;;;20.50;3.85;;;5.10;99.90;;;;;;4928469;29;20228;-73
2022/01/06 10:09:09;;;;;;;11.80;2.95;;;5.20;99.90;;;;;;4944019;29;20727;-71
2022/01/06 10:11:57;;;;;;;14.27;3.35;;;5.30;99.90;;;;;;4935200;29;20212;-73
2022/01/06 10:14:46;;;;;;;15.82;3.05;;;5.40;99.90;;;;;;4936880;29;20240;-73
2022/01/06 10:17:33;;;;;;;23.25;3.25;;;5.50;99.90;;;;;;4933928;29;20205;-72
2022/01/06 10:20:21;;;;;;;12.35;3.70;;;5.60;99.90;;;;;;4925669;29;20330;-73
2022/01/06 10:23:14;;;;;;;8.57;3.17;;;5.70;99.90;;;;;;4942240;29;20278;-73
2022/01/06 10:26:12;;;;;;;18.88;3.47;;;5.70;99.90;;;;;;4934426;29;20220;-72
2022/01/06 10:28:58;;;;;;;11.02;3.30;;;5.80;99.90;;;;;;4934287;29;20233;-73
2022/01/06 10:31:44;;;;;;;10.98;2.60;;;6.00;99.90;;;;;;4934053;29;20285;-73
2022/01/06 10:34:33;;;;;;;12.52;3.03;;;6.20;99.90;;;;;;4934163;29;20284;-73
2022/01/06 10:37:20;;;;;;;15.70;3.10;;;6.40;99.90;;;;;;4927043;29;20750;-73
2022/01/06 10:40:10;;;;;;;14.73;3.72;;;6.40;99.90;;;;;;4934780;29;20501;-72
2022/01/06 10:42:58;;;;;;;10.98;3.70;;;6.50;99.90;;;;;;4935364;29;20269;-73
2022/01/06 10:45:43;;;;;;;11.52;3.10;;;6.80;99.90;;;;;;4932695;29;20692;-72
2022/01/06 10:48:29;;;;;;;14.75;3.78;;;6.80;99.90;;;;;;4929849;29;20217;-72
2022/01/06 10:51:15;;;;;;;12.25;3.35;;;6.90;99.90;;;;;;4931442;29;20205;-72
2022/01/06 10:54:00;;;;;;;10.88;3.35;;;7.30;99.90;;;;;;4932446;29;20285;-72
2022/01/06 10:56:58;;;;;;;10.68;3.55;;;7.30;99.90;;;;;;4936951;29;20260;-72
2022/01/06 10:59:46;;;;;;;10.15;3.20;;;7.40;99.90;;;;;;4931886;29;20189;-73
2022/01/06 11:02:31;;;;;;;12.23;4.30;;;7.70;99.90;;;;;;4932361;29;20216;-72
2022/01/06 11:05:17;;;;;;;45.50;5.35;;;7.80;99.90;;;;;;4926579;29;20331;-72
2022/01/06 11:08:03;;;;;;;11.10;4.75;;;7.80;99.90;;;;;;4932236;29;20710;-73
2022/01/06 11:11:01;;;;;;;18.27;4.00;;;7.70;99.90;;;;;;4933585;29;20217;-73
2022/01/06 11:13:50;;;;;;;11.30;3.33;;;7.90;99.90;;;;;;4932141;29;20558;-73
2022/01/06 11:16:36;;;;;;;10.50;3.70;;;8.00;99.90;;;;;;4931207;29;20200;-73
2022/01/06 11:19:23;;;;;;;8.90;3.20;;;7.90;99.90;;;;;;4932370;29;20497;-72
2022/01/06 11:22:09;;;;;;;14.93;3.63;;;7.90;99.90;;;;;;4933756;29;20452;-72
2022/01/06 11:24:57;;;;;;;10.63;3.63;;;7.80;99.90;;;;;;4931969;29;20559;-72
2022/01/06 11:27:42;;;;;;;11.27;3.47;;;7.50;99.90;;;;;;4931873;29;20484;-72
2022/01/06 11:30:40;;;;;;;19.65;4.10;;;7.30;99.90;;;;;;4938326;29;20452;-73
2022/01/06 11:33:25;;;;;;;16.10;4.50;;;7.00;99.90;;;;;;4935215;29;20683;-73
2022/01/06 11:36:21;;;;;;;17.60;5.03;;;7.00;99.90;;;;;;4931634;29;20464;-72
2022/01/06 11:39:08;;;;;;;21.60;5.00;;;7.10;99.90;;;;;;4933578;29;20756;-73
2022/01/06 11:41:55;;;;;;;10.30;3.30;;;7.30;99.90;;;;;;4934616;29;20422;-72
2022/01/06 11:44:49;;;;;;;14.18;3.60;;;7.30;99.90;;;;;;4933081;29;20595;-73
2022/01/06 11:47:38;;;;;;;17.00;3.70;;;7.20;99.90;;;;;;4930830;29;20237;-72
2022/01/06 11:50:25;;;;;;;13.57;3.58;;;6.90;99.90;;;;;;4928306;29;20225;-72
2022/01/06 11:53:11;;;;;;;7.32;3.97;;;6.80;99.90;;;;;;4933818;29;20201;-73
2022/01/06 11:55:57;;;;;;;11.43;3.35;;;6.80;99.90;;;;;;4930977;29;20344;-73
2022/01/06 11:58:43;;;;;;;9.77;3.00;;;6.80;99.90;;;;;;4929999;29;20205;-72
2022/01/06 12:01:29;;;;;;;11.40;3.72;;;6.90;99.90;;;;;;4932397;29;20208;-72
2022/01/06 12:04:18;;;;;;;7.38;3.55;;;6.90;99.90;;;;;;4929932;29;20208;-73
2022/01/06 12:07:05;;;;;;;19.88;4.68;;;7.00;99.90;;;;;;4931208;29;20205;-72
2022/01/06 12:10:05;;;;;;;9.60;2.30;;;7.20;99.90;;;;;;4933385;29;20189;-73
2022/01/06 12:12:59;;;;;;;11.15;2.90;;;7.30;99.90;;;;;;4933702;29;20800;-72
2022/01/06 12:15:50;;;;;;;16.52;3.60;;;7.30;99.90;;;;;;4928736;29;20784;-72
2022/01/06 12:18:36;;;;;;;11.90;2.75;;;7.30;99.90;;;;;;4933152;29;20304;-73
2022/01/06 12:21:23;;;;;;;12.63;3.88;;;7.40;99.90;;;;;;4933917;29;20205;-72
2022/01/06 12:24:11;;;;;;;12.73;2.83;;;7.30;99.90;;;;;;4933306;29;20205;-72
2022/01/06 12:26:57;;;;;;;12.50;3.30;;;7.30;99.90;;;;;;4935669;29;20200;-72
2022/01/06 12:29:42;;;;;;;9.68;2.40;;;7.20;99.90;;;;;;4932766;29;20701;-72
2022/01/06 12:32:28;;;;;;;14.45;3.58;;;7.00;99.90;;;;;;4932351;29;20248;-73
2022/01/06 12:35:14;;;;;;;10.65;2.83;;;6.90;99.90;;;;;;4930701;29;20283;-72
2022/01/06 12:38:01;;;;;;;10.95;4.13;;;7.20;99.90;;;;;;4931880;29;20682;-73
2022/01/06 12:40:47;;;;;;;13.57;3.33;;;7.30;99.90;;;;;;4930240;29;20197;-71
2022/01/06 12:43:35;;;;;;;11.60;3.60;;;7.20;99.90;;;;;;4931051;29;20248;-70
2022/01/06 12:46:20;;;;;;;13.48;2.95;;;7.00;99.90;;;;;;4930055;29;20515;-72
2022/01/06 12:49:08;;;;;;;17.50;3.50;;;6.80;99.90;;;;;;4932444;29;20277;-71
2022/01/06 12:51:54;;;;;;;11.93;3.42;;;6.50;99.90;;;;;;4939265;28;20460;-71
2022/01/06 12:54:43;;;;;;;14.85;2.97;;;6.40;99.90;;;;;;4935106;29;20240;-71
2022/01/06 12:57:28;;;;;;;13.95;3.60;;;6.30;99.90;;;;;;4939029;29;20228;-71
2022/01/06 13:00:15;;;;;;;10.70;3.80;;;6.40;99.90;;;;;;4934069;29;20208;-71
2022/01/06 13:03:04;;;;;;;14.55;3.05;;;6.30;99.90;;;;;;4935354;29;20219;-72
2022/01/06 13:05:50;;;;;;;13.75;3.20;;;6.50;99.90;;;;;;4932625;29;20225;-72
2022/01/06 13:08:45;;;;;;;10.50;3.87;;;6.60;99.90;;;;;;4935089;29;20958;-72
2022/01/06 13:11:48;;;;;;;17.80;3.90;;;6.60;99.90;;;;;;4931442;29;20456;-72
2022/01/06 13:14:35;;;;;;;11.40;3.50;;;6.50;99.90;;;;;;4933277;29;20265;-70
2022/01/06 13:17:23;;;;;;;13.57;4.03;;;6.60;99.90;;;;;;4932134;29;20678;-71
2022/01/06 13:20:11;;;;;;;12.88;3.20;;;6.60;99.90;;;;;;4936208;29;20204;-71
2022/01/06 13:23:32;;;;;;;12.95;3.38;;;6.60;99.90;;;;;;4931000;29;20256;-71
2022/01/06 13:26:11;;;;;;;16.55;4.07;;;6.60;99.90;;;;;;4937452;29;20245;-71
2022/01/06 13:29:08;;;;;;;19.00;3.83;;;6.60;99.90;;;;;;4932320;29;20702;-72
2022/01/06 13:32:02;;;;;;;11.13;3.42;;;6.50;99.90;;;;;;4931242;29;20817;-73
2022/01/06 13:34:49;;;;;;;11.93;4.60;;;6.50;99.90;;;;;;4931093;29;20251;-73
2022/01/06 13:37:37;;;;;;;11.32;3.78;;;6.50;99.90;;;;;;4932319;29;20460;-72
2022/01/06 13:40:23;;;;;;;13.10;3.30;;;6.50;99.90;;;;;;4931772;29;20212;-72
2022/01/06 13:43:08;;;;;;;15.57;3.57;;;6.40;99.90;;;;;;4932050;29;20579;-72
2022/01/06 13:46:07;;;;;;;13.82;3.70;;;6.30;99.90;;;;;;4929644;29;20496;-71
2022/01/06 13:51:53;;;;;;;11.47;3.20;;;6.20;99.90;;;;;;4932249;29;20874;-71
2022/01/06 13:54:38;;;;;;;10.25;3.65;;;6.20;99.90;;;;;;4927646;29;20488;-72
2022/01/06 13:57:24;;;;;;;7.73;3.13;;;6.10;99.90;;;;;;4927006;29;20221;-72
2022/01/06 14:00:11;;;;;;;8.23;2.87;;;6.00;99.90;;;;;;4932005;29;20840;-72
2022/01/06 14:02:58;;;;;;;12.43;2.80;;;5.80;99.90;;;;;;4932631;29;20434;-72
2022/01/06 14:05:44;;;;;;;10.30;3.20;;;5.90;99.90;;;;;;4933597;29;20458;-72
2022/01/06 14:08:30;;;;;;;9.52;3.13;;;5.80;99.90;;;;;;4930622;29;20472;-69
2022/01/06 14:11:17;;;;;;;5.20;2.67;;;5.80;99.90;;;;;;4929857;29;20220;-71
2022/01/06 14:14:03;;;;;;;9.98;3.30;;;5.70;99.90;;;;;;4930977;29;20757;-71
2022/01/06 14:16:49;;;;;;;12.48;3.30;;;5.50;99.90;;;;;;4933498;29;20216;-71
2022/01/06 14:19:38;;;;;;;9.30;2.40;;;5.60;99.90;;;;;;4932224;29;20334;-71
2022/01/06 14:22:25;;;;;;;8.88;2.97;;;5.50;99.90;;;;;;4933359;29;20763;-71
2022/01/06 14:25:11;;;;;;;13.95;3.10;;;5.50;99.90;;;;;;4929841;29;20232;-71
2022/01/06 14:27:57;;;;;;;14.38;3.72;;;5.30;99.90;;;;;;4932672;29;20629;-72
2022/01/06 14:30:43;;;;;;;20.77;3.10;;;5.10;99.90;;;;;;4929847;29;20281;-71
2022/01/06 14:33:29;;;;;;;7.82;2.83;;;5.10;99.90;;;;;;4928186;29;20208;-73
2022/01/06 14:36:17;;;;;;;20.30;3.90;;;5.20;99.90;;;;;;4931624;29;20577;-72
2022/01/06 14:39:03;;;;;;;16.98;3.10;;;5.20;99.90;;;;;;4934237;29;20205;-72